sensor_id;sensor_type;location;lat;lon;timestamp;P1;durP1;ratioP1;P2;durP2;ratioP2
15354;SDS011;7777;52.254;9.618;2023-04-01T00:00:56;5.83;;;1.63;;
15354;SDS011;7777;52.254;9.618;2023-04-01T00:03:24;2.20;;;0.80;;
15354;SDS011;7777;52.254;9.618;2023-04-01T00:05:52;5.87;;;1.50;;
15354;SDS011;7777;52.254;9.618;2023-04-01T00:08:19;7.53;;;1.10;;
15354;SDS011;7777;52.254;9.618;2023-04-01T00:10:45;1.97;;;0.70;;
15354;SDS011;7777;52.254;9.618;2023-04-01T00:13:11;1.93;;;0.73;;
15354;SDS011;7777;52.254;9.618;2023-04-01T00:15:36;5.33;;;1.37;;
15354;SDS011;7777;52.254;9.618;2023-04-01T00:18:11;2.63;;;1.10;;
15354;SDS011;7777;52.254;9.618;2023-04-01T00:20:37;2.03;;;0.60;;
15354;SDS011;7777;52.254;9.618;2023-04-01T00:23:02;1.90;;;0.60;;
15354;SDS011;7777;52.254;9.618;2023-04-01T00:25:30;4.10;;;0.97;;
15354;SDS011;7777;52.254;9.618;2023-04-01T00:27:56;2.20;;;0.70;;
15354;SDS011;7777;52.254;9.618;2023-04-01T00:30:21;2.43;;;0.63;;
15354;SDS011;7777;52.254;9.618;2023-04-01T00:32:50;2.83;;;0.60;;
15354;SDS011;7777;52.254;9.618;2023-04-01T00:35:18;3.53;;;0.80;;
15354;SDS011;7777;52.254;9.618;2023-04-01T00:37:44;3.30;;;0.80;;
15354;SDS011;7777;52.254;9.618;2023-04-01T00:40:20;2.43;;;0.70;;
15354;SDS011;7777;52.254;9.618;2023-04-01T00:42:50;3.27;;;0.90;;
15354;SDS011;7777;52.254;9.618;2023-04-01T00:45:49;5.40;;;1.27;;
15354;SDS011;7777;52.254;9.618;2023-04-01T00:48:10;3.93;;;0.93;;
15354;SDS011;7777;52.254;9.618;2023-04-01T00:50:54;2.37;;;0.97;;
15354;SDS011;7777;52.254;9.618;2023-04-01T00:53:31;2.30;;;0.70;;
15354;SDS011;7777;52.254;9.618;2023-04-01T00:56:01;2.83;;;0.97;;
15354;SDS011;7777;52.254;9.618;2023-04-01T00:58:33;3.20;;;0.73;;
15354;SDS011;7777;52.254;9.618;2023-04-01T01:01:03;2.87;;;0.87;;
15354;SDS011;7777;52.254;9.618;2023-04-01T01:03:30;2.90;;;0.63;;
15354;SDS011;7777;52.254;9.618;2023-04-01T01:06:03;2.00;;;0.90;;
15354;SDS011;7777;52.254;9.618;2023-04-01T01:08:54;1.87;;;0.60;;
15354;SDS011;7777;52.254;9.618;2023-04-01T01:11:37;1.50;;;0.50;;
15354;SDS011;7777;52.254;9.618;2023-04-01T01:14:19;5.07;;;1.17;;
15354;SDS011;7777;52.254;9.618;2023-04-01T01:17:13;5.23;;;1.30;;
15354;SDS011;7777;52.254;9.618;2023-04-01T01:29:07;3.87;;;1.00;;
15354;SDS011;7777;52.254;9.618;2023-04-01T01:37:17;1.60;;;0.70;;
15354;SDS011;7777;52.254;9.618;2023-04-01T01:39:48;3.27;;;1.00;;
15354;SDS011;7777;52.254;9.618;2023-04-01T01:42:19;3.47;;;0.80;;
15354;SDS011;7777;52.254;9.618;2023-04-01T01:44:48;2.67;;;1.00;;
15354;SDS011;7777;52.254;9.618;2023-04-01T01:47:15;2.23;;;0.60;;
15354;SDS011;7777;52.254;9.618;2023-04-01T01:49:43;1.50;;;0.60;;
15354;SDS011;7777;52.254;9.618;2023-04-01T01:52:11;1.70;;;0.80;;
15354;SDS011;7777;52.254;9.618;2023-04-01T01:54:47;3.33;;;0.57;;
15354;SDS011;7777;52.254;9.618;2023-04-01T01:57:22;4.83;;;0.87;;
15354;SDS011;7777;52.254;9.618;2023-04-01T01:59:52;2.13;;;0.70;;
15354;SDS011;7777;52.254;9.618;2023-04-01T02:02:23;2.57;;;0.90;;
15354;SDS011;7777;52.254;9.618;2023-04-01T02:04:51;3.67;;;0.80;;
15354;SDS011;7777;52.254;9.618;2023-04-01T02:07:20;2.10;;;0.60;;
15354;SDS011;7777;52.254;9.618;2023-04-01T02:09:51;2.97;;;0.60;;
15354;SDS011;7777;52.254;9.618;2023-04-01T02:12:17;2.30;;;0.60;;
15354;SDS011;7777;52.254;9.618;2023-04-01T02:14:56;1.00;;;0.57;;
15354;SDS011;7777;52.254;9.618;2023-04-01T02:17:35;2.03;;;0.90;;
15354;SDS011;7777;52.254;9.618;2023-04-01T02:20:18;1.20;;;0.50;;
15354;SDS011;7777;52.254;9.618;2023-04-01T02:22:48;0.97;;;0.40;;
15354;SDS011;7777;52.254;9.618;2023-04-01T02:25:21;0.80;;;0.60;;
15354;SDS011;7777;52.254;9.618;2023-04-01T02:27:52;3.90;;;0.70;;
15354;SDS011;7777;52.254;9.618;2023-04-01T02:30:20;5.47;;;0.80;;
15354;SDS011;7777;52.254;9.618;2023-04-01T02:32:46;3.33;;;0.77;;
15354;SDS011;7777;52.254;9.618;2023-04-01T02:35:14;2.30;;;0.73;;
15354;SDS011;7777;52.254;9.618;2023-04-01T02:37:41;2.47;;;0.50;;
15354;SDS011;7777;52.254;9.618;2023-04-01T02:40:08;1.43;;;0.60;;
15354;SDS011;7777;52.254;9.618;2023-04-01T02:42:39;0.93;;;0.53;;
15354;SDS011;7777;52.254;9.618;2023-04-01T02:45:05;2.90;;;0.80;;
15354;SDS011;7777;52.254;9.618;2023-04-01T02:47:32;2.87;;;0.80;;
15354;SDS011;7777;52.254;9.618;2023-04-01T02:49:57;2.27;;;0.60;;
15354;SDS011;7777;52.254;9.618;2023-04-01T02:52:24;4.50;;;0.97;;
15354;SDS011;7777;52.254;9.618;2023-04-01T02:54:50;2.43;;;0.80;;
15354;SDS011;7777;52.254;9.618;2023-04-01T02:57:16;1.23;;;0.40;;
15354;SDS011;7777;52.254;9.618;2023-04-01T02:59:42;2.93;;;0.70;;
15354;SDS011;7777;52.254;9.618;2023-04-01T03:02:07;1.73;;;0.80;;
15354;SDS011;7777;52.254;9.618;2023-04-01T03:04:33;7.27;;;0.60;;
15354;SDS011;7777;52.254;9.618;2023-04-01T03:06:59;0.80;;;0.60;;
15354;SDS011;7777;52.254;9.618;2023-04-01T03:09:24;1.13;;;0.50;;
15354;SDS011;7777;52.254;9.618;2023-04-01T03:11:50;3.57;;;0.70;;
15354;SDS011;7777;52.254;9.618;2023-04-01T03:14:16;2.70;;;0.90;;
15354;SDS011;7777;52.254;9.618;2023-04-01T03:16:42;2.87;;;0.70;;
15354;SDS011;7777;52.254;9.618;2023-04-01T03:19:07;1.50;;;0.57;;
15354;SDS011;7777;52.254;9.618;2023-04-01T03:21:33;1.53;;;0.40;;
15354;SDS011;7777;52.254;9.618;2023-04-01T03:23:59;1.33;;;0.40;;
15354;SDS011;7777;52.254;9.618;2023-04-01T03:26:24;4.33;;;0.77;;
15354;SDS011;7777;52.254;9.618;2023-04-01T03:28:52;2.57;;;0.73;;
15354;SDS011;7777;52.254;9.618;2023-04-01T03:31:18;1.43;;;0.80;;
15354;SDS011;7777;52.254;9.618;2023-04-01T03:33:44;2.87;;;0.50;;
15354;SDS011;7777;52.254;9.618;2023-04-01T03:36:10;1.80;;;0.60;;
15354;SDS011;7777;52.254;9.618;2023-04-01T03:38:37;3.13;;;1.20;;
15354;SDS011;7777;52.254;9.618;2023-04-01T03:41:05;2.20;;;0.83;;
15354;SDS011;7777;52.254;9.618;2023-04-01T03:43:31;2.33;;;0.60;;
15354;SDS011;7777;52.254;9.618;2023-04-01T03:45:57;1.93;;;0.60;;
15354;SDS011;7777;52.254;9.618;2023-04-01T03:48:23;2.07;;;0.70;;
15354;SDS011;7777;52.254;9.618;2023-04-01T03:50:50;4.27;;;0.60;;
15354;SDS011;7777;52.254;9.618;2023-04-01T03:53:16;3.30;;;0.80;;
15354;SDS011;7777;52.254;9.618;2023-04-01T03:55:42;0.97;;;0.40;;
15354;SDS011;7777;52.254;9.618;2023-04-01T03:58:08;3.13;;;0.67;;
15354;SDS011;7777;52.254;9.618;2023-04-01T04:00:34;2.77;;;0.80;;
15354;SDS011;7777;52.254;9.618;2023-04-01T04:03:00;2.17;;;1.07;;
15354;SDS011;7777;52.254;9.618;2023-04-01T04:05:26;1.67;;;1.13;;
15354;SDS011;7777;52.254;9.618;2023-04-01T04:07:52;4.00;;;0.87;;
15354;SDS011;7777;52.254;9.618;2023-04-01T04:10:19;2.13;;;0.90;;
15354;SDS011;7777;52.254;9.618;2023-04-01T04:12:48;2.73;;;0.43;;
15354;SDS011;7777;52.254;9.618;2023-04-01T04:15:14;0.50;;;0.50;;
15354;SDS011;7777;52.254;9.618;2023-04-01T04:17:40;2.80;;;1.20;;
15354;SDS011;7777;52.254;9.618;2023-04-01T04:20:06;1.60;;;0.53;;
15354;SDS011;7777;52.254;9.618;2023-04-01T04:22:33;1.60;;;0.60;;
15354;SDS011;7777;52.254;9.618;2023-04-01T04:24:59;3.23;;;1.10;;
15354;SDS011;7777;52.254;9.618;2023-04-01T04:27:25;2.10;;;0.70;;
15354;SDS011;7777;52.254;9.618;2023-04-01T04:29:50;1.03;;;0.50;;
15354;SDS011;7777;52.254;9.618;2023-04-01T04:32:16;0.90;;;0.40;;
15354;SDS011;7777;52.254;9.618;2023-04-01T04:34:42;1.53;;;0.70;;
15354;SDS011;7777;52.254;9.618;2023-04-01T04:37:08;2.47;;;0.47;;
15354;SDS011;7777;52.254;9.618;2023-04-01T04:39:33;2.33;;;0.53;;
15354;SDS011;7777;52.254;9.618;2023-04-01T04:41:59;0.40;;;0.40;;
15354;SDS011;7777;52.254;9.618;2023-04-01T04:44:25;1.53;;;0.60;;
15354;SDS011;7777;52.254;9.618;2023-04-01T04:46:50;2.90;;;0.53;;
15354;SDS011;7777;52.254;9.618;2023-04-01T04:49:16;1.17;;;0.60;;
15354;SDS011;7777;52.254;9.618;2023-04-01T04:51:42;0.87;;;0.40;;
15354;SDS011;7777;52.254;9.618;2023-04-01T04:54:08;2.90;;;0.80;;
15354;SDS011;7777;52.254;9.618;2023-04-01T04:56:34;1.33;;;0.50;;
15354;SDS011;7777;52.254;9.618;2023-04-01T04:59:00;1.10;;;0.40;;
15354;SDS011;7777;52.254;9.618;2023-04-01T05:01:26;1.43;;;0.40;;
15354;SDS011;7777;52.254;9.618;2023-04-01T05:03:52;0.80;;;0.60;;
15354;SDS011;7777;52.254;9.618;2023-04-01T05:06:18;1.47;;;0.50;;
15354;SDS011;7777;52.254;9.618;2023-04-01T05:08:44;0.63;;;0.40;;
15354;SDS011;7777;52.254;9.618;2023-04-01T05:11:12;0.80;;;0.50;;
15354;SDS011;7777;52.254;9.618;2023-04-01T05:13:41;1.30;;;0.53;;
15354;SDS011;7777;52.254;9.618;2023-04-01T05:16:08;1.37;;;0.93;;
15354;SDS011;7777;52.254;9.618;2023-04-01T05:18:36;2.63;;;1.03;;
15354;SDS011;7777;52.254;9.618;2023-04-01T05:21:01;3.13;;;1.40;;
15354;SDS011;7777;52.254;9.618;2023-04-01T05:23:27;3.23;;;1.10;;
15354;SDS011;7777;52.254;9.618;2023-04-01T05:25:53;1.40;;;0.80;;
15354;SDS011;7777;52.254;9.618;2023-04-01T05:28:19;3.27;;;0.83;;
15354;SDS011;7777;52.254;9.618;2023-04-01T05:30:45;1.90;;;0.70;;
15354;SDS011;7777;52.254;9.618;2023-04-01T05:33:12;1.13;;;0.60;;
15354;SDS011;7777;52.254;9.618;2023-04-01T05:35:38;1.53;;;0.80;;
15354;SDS011;7777;52.254;9.618;2023-04-01T05:38:05;1.47;;;0.50;;
15354;SDS011;7777;52.254;9.618;2023-04-01T05:40:31;3.50;;;0.80;;
15354;SDS011;7777;52.254;9.618;2023-04-01T05:42:58;1.80;;;0.70;;
15354;SDS011;7777;52.254;9.618;2023-04-01T05:45:25;0.93;;;0.70;;
15354;SDS011;7777;52.254;9.618;2023-04-01T05:47:50;2.57;;;0.73;;
15354;SDS011;7777;52.254;9.618;2023-04-01T05:50:16;4.63;;;0.50;;
15354;SDS011;7777;52.254;9.618;2023-04-01T05:52:42;2.73;;;0.63;;
15354;SDS011;7777;52.254;9.618;2023-04-01T05:55:09;2.30;;;0.80;;
15354;SDS011;7777;52.254;9.618;2023-04-01T05:57:38;2.87;;;0.60;;
15354;SDS011;7777;52.254;9.618;2023-04-01T06:00:05;2.37;;;0.87;;
15354;SDS011;7777;52.254;9.618;2023-04-01T06:02:32;1.27;;;0.50;;
15354;SDS011;7777;52.254;9.618;2023-04-01T06:05:40;1.90;;;0.63;;
15354;SDS011;7777;52.254;9.618;2023-04-01T06:07:50;1.03;;;0.60;;
15354;SDS011;7777;52.254;9.618;2023-04-01T06:10:23;1.47;;;0.50;;
15354;SDS011;7777;52.254;9.618;2023-04-01T06:16:34;2.53;;;0.70;;
15354;SDS011;7777;52.254;9.618;2023-04-01T06:28:18;0.93;;;0.50;;
15354;SDS011;7777;52.254;9.618;2023-04-01T06:37:14;3.20;;;0.77;;
15354;SDS011;7777;52.254;9.618;2023-04-01T06:42:46;3.70;;;0.83;;
15354;SDS011;7777;52.254;9.618;2023-04-01T06:45:16;2.30;;;0.87;;
15354;SDS011;7777;52.254;9.618;2023-04-01T06:59:55;1.47;;;0.57;;
15354;SDS011;7777;52.254;9.618;2023-04-01T07:02:47;0.60;;;0.30;;
15354;SDS011;7777;52.254;9.618;2023-04-01T07:05:20;1.80;;;0.60;;
15354;SDS011;7777;52.254;9.618;2023-04-01T07:07:48;3.90;;;0.80;;
15354;SDS011;7777;52.254;9.618;2023-04-01T07:13:00;1.20;;;0.57;;
15354;SDS011;7777;52.254;9.618;2023-04-01T07:15:39;1.57;;;0.40;;
15354;SDS011;7777;52.254;9.618;2023-04-01T07:18:15;3.00;;;0.73;;
15354;SDS011;7777;52.254;9.618;2023-04-01T07:20:55;0.97;;;0.40;;
15354;SDS011;7777;52.254;9.618;2023-04-01T07:23:23;1.43;;;0.77;;
15354;SDS011;7777;52.254;9.618;2023-04-01T07:26:04;1.73;;;0.60;;
15354;SDS011;7777;52.254;9.618;2023-04-01T07:28:45;1.77;;;0.60;;
15354;SDS011;7777;52.254;9.618;2023-04-01T07:34:08;2.60;;;0.83;;
15354;SDS011;7777;52.254;9.618;2023-04-01T07:37:27;1.43;;;0.70;;
15354;SDS011;7777;52.254;9.618;2023-04-01T07:40:06;2.17;;;0.80;;
15354;SDS011;7777;52.254;9.618;2023-04-01T07:46:29;2.60;;;1.37;;
15354;SDS011;7777;52.254;9.618;2023-04-01T07:51:31;2.03;;;1.10;;
15354;SDS011;7777;52.254;9.618;2023-04-01T07:54:28;2.07;;;1.07;;
15354;SDS011;7777;52.254;9.618;2023-04-01T07:57:24;1.67;;;0.80;;
15354;SDS011;7777;52.254;9.618;2023-04-01T08:03:31;1.17;;;0.67;;
15354;SDS011;7777;52.254;9.618;2023-04-01T08:06:07;3.90;;;1.07;;
15354;SDS011;7777;52.254;9.618;2023-04-01T08:08:55;5.30;;;1.10;;
15354;SDS011;7777;52.254;9.618;2023-04-01T08:14:59;1.80;;;0.97;;
15354;SDS011;7777;52.254;9.618;2023-04-01T08:17:55;2.73;;;1.03;;
15354;SDS011;7777;52.254;9.618;2023-04-01T08:20:58;3.10;;;0.87;;
15354;SDS011;7777;52.254;9.618;2023-04-01T08:23:36;1.77;;;0.77;;
15354;SDS011;7777;52.254;9.618;2023-04-01T08:28:35;2.97;;;1.13;;
15354;SDS011;7777;52.254;9.618;2023-04-01T08:33:57;3.27;;;0.90;;
15354;SDS011;7777;52.254;9.618;2023-04-01T08:36:32;0.93;;;0.50;;
15354;SDS011;7777;52.254;9.618;2023-04-01T08:39:06;1.77;;;0.67;;
15354;SDS011;7777;52.254;9.618;2023-04-01T08:41:50;2.67;;;0.80;;
15354;SDS011;7777;52.254;9.618;2023-04-01T08:48:29;1.17;;;0.33;;
15354;SDS011;7777;52.254;9.618;2023-04-01T08:51:14;1.03;;;0.40;;
15354;SDS011;7777;52.254;9.618;2023-04-01T08:56:58;3.53;;;0.90;;
15354;SDS011;7777;52.254;9.618;2023-04-01T08:59:44;1.53;;;0.90;;
15354;SDS011;7777;52.254;9.618;2023-04-01T09:05:35;1.40;;;0.63;;
15354;SDS011;7777;52.254;9.618;2023-04-01T09:17:28;2.73;;;1.10;;
15354;SDS011;7777;52.254;9.618;2023-04-01T09:26:22;2.40;;;0.60;;
15354;SDS011;7777;52.254;9.618;2023-04-01T09:29:52;2.30;;;0.80;;
15354;SDS011;7777;52.254;9.618;2023-04-01T09:35:20;0.40;;;0.40;;
15354;SDS011;7777;52.254;9.618;2023-04-01T09:38:19;1.20;;;0.60;;
15354;SDS011;7777;52.254;9.618;2023-04-01T09:41:31;1.10;;;0.60;;
15354;SDS011;7777;52.254;9.618;2023-04-01T09:48:02;1.07;;;0.40;;
15354;SDS011;7777;52.254;9.618;2023-04-01T09:53:39;0.50;;;0.27;;
15354;SDS011;7777;52.254;9.618;2023-04-01T10:03:12;0.93;;;0.50;;
15354;SDS011;7777;52.254;9.618;2023-04-01T10:06:33;3.87;;;0.53;;
15354;SDS011;7777;52.254;9.618;2023-04-01T10:42:43;0.83;;;0.33;;
15354;SDS011;7777;52.254;9.618;2023-04-01T10:45:02;0.83;;;0.47;;
15354;SDS011;7777;52.254;9.618;2023-04-01T10:58:08;1.20;;;0.50;;
15354;SDS011;7777;52.254;9.618;2023-04-01T11:10:29;0.67;;;0.30;;
15354;SDS011;7777;52.254;9.618;2023-04-01T11:20:11;4.50;;;0.40;;
15354;SDS011;7777;52.254;9.618;2023-04-01T11:26:30;0.63;;;0.60;;
15354;SDS011;7777;52.254;9.618;2023-04-01T11:35:24;1.60;;;0.50;;
15354;SDS011;7777;52.254;9.618;2023-04-01T11:44:18;0.77;;;0.50;;
15354;SDS011;7777;52.254;9.618;2023-04-01T11:47:00;0.53;;;0.37;;
15354;SDS011;7777;52.254;9.618;2023-04-01T11:53:10;1.20;;;0.50;;
15354;SDS011;7777;52.254;9.618;2023-04-01T11:58:39;0.83;;;0.40;;
15354;SDS011;7777;52.254;9.618;2023-04-01T12:01:23;2.63;;;0.40;;
15354;SDS011;7777;52.254;9.618;2023-04-01T12:04:11;1.67;;;0.43;;
15354;SDS011;7777;52.254;9.618;2023-04-01T12:07:02;0.77;;;0.63;;
15354;SDS011;7777;52.254;9.618;2023-04-01T12:09:49;1.03;;;0.50;;
15354;SDS011;7777;52.254;9.618;2023-04-01T12:18:59;0.30;;;0.30;;
15354;SDS011;7777;52.254;9.618;2023-04-01T12:21:49;0.53;;;0.50;;
15354;SDS011;7777;52.254;9.618;2023-04-01T12:27:39;0.33;;;0.30;;
15354;SDS011;7777;52.254;9.618;2023-04-01T12:40:20;2.90;;;0.47;;
15354;SDS011;7777;52.254;9.618;2023-04-01T12:46:12;0.33;;;0.30;;
15354;SDS011;7777;52.254;9.618;2023-04-01T12:49:01;0.20;;;0.20;;
15354;SDS011;7777;52.254;9.618;2023-04-01T12:51:53;0.77;;;0.30;;
15354;SDS011;7777;52.254;9.618;2023-04-01T12:54:58;0.67;;;0.40;;
15354;SDS011;7777;52.254;9.618;2023-04-01T13:04:15;0.73;;;0.43;;
15354;SDS011;7777;52.254;9.618;2023-04-01T13:16:29;2.17;;;0.97;;
15354;SDS011;7777;52.254;9.618;2023-04-01T13:19:10;1.90;;;1.00;;
15354;SDS011;7777;52.254;9.618;2023-04-01T13:24:51;4.37;;;1.10;;
15354;SDS011;7777;52.254;9.618;2023-04-01T13:27:35;2.63;;;0.83;;
15354;SDS011;7777;52.254;9.618;2023-04-01T13:39:01;1.70;;;0.67;;
15354;SDS011;7777;52.254;9.618;2023-04-01T13:44:21;1.60;;;0.83;;
15354;SDS011;7777;52.254;9.618;2023-04-01T13:58:22;0.90;;;0.70;;
15354;SDS011;7777;52.254;9.618;2023-04-01T14:01:13;1.17;;;0.53;;
15354;SDS011;7777;52.254;9.618;2023-04-01T14:18:33;1.10;;;0.70;;
15354;SDS011;7777;52.254;9.618;2023-04-01T14:21:25;4.70;;;0.70;;
15354;SDS011;7777;52.254;9.618;2023-04-01T14:42:52;1.27;;;1.00;;
15354;SDS011;7777;52.254;9.618;2023-04-01T14:45:50;2.73;;;1.00;;
15354;SDS011;7777;52.254;9.618;2023-04-01T14:50:56;5.77;;;5.17;;
15354;SDS011;7777;52.254;9.618;2023-04-01T14:53:41;5.77;;;5.10;;
15354;SDS011;7777;52.254;9.618;2023-04-01T14:57:03;5.77;;;5.17;;
15354;SDS011;7777;52.254;9.618;2023-04-01T14:59:52;7.40;;;4.03;;
15354;SDS011;7777;52.254;9.618;2023-04-01T15:09:02;2.33;;;1.20;;
15354;SDS011;7777;52.254;9.618;2023-04-01T15:11:52;1.90;;;0.90;;
15354;SDS011;7777;52.254;9.618;2023-04-01T15:14:34;1.33;;;0.93;;
15354;SDS011;7777;52.254;9.618;2023-04-01T15:20:45;2.40;;;1.40;;
15354;SDS011;7777;52.254;9.618;2023-04-01T15:34:33;1.23;;;0.90;;
15354;SDS011;7777;52.254;9.618;2023-04-01T15:37:21;2.00;;;0.90;;
15354;SDS011;7777;52.254;9.618;2023-04-01T15:50:54;2.60;;;1.93;;
15354;SDS011;7777;52.254;9.618;2023-04-01T15:56:45;1.17;;;1.03;;
15354;SDS011;7777;52.254;9.618;2023-04-01T15:59:58;2.03;;;1.27;;
15354;SDS011;7777;52.254;9.618;2023-04-01T16:02:43;1.23;;;1.10;;
15354;SDS011;7777;52.254;9.618;2023-04-01T16:20:55;0.70;;;0.70;;
15354;SDS011;7777;52.254;9.618;2023-04-01T16:23:35;0.73;;;0.67;;
15354;SDS011;7777;52.254;9.618;2023-04-01T16:26:07;1.80;;;0.73;;
15354;SDS011;7777;52.254;9.618;2023-04-01T16:31:34;0.63;;;0.40;;
15354;SDS011;7777;52.254;9.618;2023-04-01T16:40:16;0.70;;;0.70;;
15354;SDS011;7777;52.254;9.618;2023-04-01T16:48:52;0.50;;;0.50;;
15354;SDS011;7777;52.254;9.618;2023-04-01T16:54:27;0.50;;;0.50;;
15354;SDS011;7777;52.254;9.618;2023-04-01T17:02:14;2.03;;;1.00;;
15354;SDS011;7777;52.254;9.618;2023-04-01T17:10:46;1.47;;;0.93;;
15354;SDS011;7777;52.254;9.618;2023-04-01T17:14:10;1.57;;;0.90;;
15354;SDS011;7777;52.254;9.618;2023-04-01T17:32:07;1.77;;;1.00;;
15354;SDS011;7777;52.254;9.618;2023-04-01T17:37:41;1.20;;;0.90;;
15354;SDS011;7777;52.254;9.618;2023-04-01T17:40:20;1.40;;;0.83;;
15354;SDS011;7777;52.254;9.618;2023-04-01T17:45:47;2.10;;;1.47;;
15354;SDS011;7777;52.254;9.618;2023-04-01T17:54:31;2.67;;;1.67;;
15354;SDS011;7777;52.254;9.618;2023-04-01T18:08:37;3.67;;;2.37;;
15354;SDS011;7777;52.254;9.618;2023-04-01T18:14:22;2.67;;;1.77;;
15354;SDS011;7777;52.254;9.618;2023-04-01T18:17:50;3.00;;;1.93;;
15354;SDS011;7777;52.254;9.618;2023-04-01T18:23:28;2.83;;;1.30;;
15354;SDS011;7777;52.254;9.618;2023-04-01T18:26:28;2.10;;;1.10;;
15354;SDS011;7777;52.254;9.618;2023-04-01T18:29:23;2.53;;;1.37;;
15354;SDS011;7777;52.254;9.618;2023-04-01T18:31:52;1.07;;;0.80;;
15354;SDS011;7777;52.254;9.618;2023-04-01T18:37:30;1.33;;;0.87;;
15354;SDS011;7777;52.254;9.618;2023-04-01T18:43:08;1.33;;;0.80;;
15354;SDS011;7777;52.254;9.618;2023-04-01T18:46:12;1.17;;;0.90;;
15354;SDS011;7777;52.254;9.618;2023-04-01T18:51:38;1.17;;;1.00;;
15354;SDS011;7777;52.254;9.618;2023-04-01T18:54:22;1.07;;;0.93;;
15354;SDS011;7777;52.254;9.618;2023-04-01T18:57:09;2.07;;;1.10;;
15354;SDS011;7777;52.254;9.618;2023-04-01T18:59:46;1.77;;;1.27;;
15354;SDS011;7777;52.254;9.618;2023-04-01T19:02:36;1.47;;;1.00;;
15354;SDS011;7777;52.254;9.618;2023-04-01T19:05:20;1.30;;;1.20;;
15354;SDS011;7777;52.254;9.618;2023-04-01T19:08:42;2.33;;;1.20;;
15354;SDS011;7777;52.254;9.618;2023-04-01T19:36:53;1.83;;;1.10;;
15354;SDS011;7777;52.254;9.618;2023-04-01T19:45:41;1.53;;;1.10;;
15354;SDS011;7777;52.254;9.618;2023-04-01T19:48:36;1.40;;;1.07;;
15354;SDS011;7777;52.254;9.618;2023-04-01T19:51:41;1.97;;;1.20;;
15354;SDS011;7777;52.254;9.618;2023-04-01T19:57:46;1.47;;;1.10;;
15354;SDS011;7777;52.254;9.618;2023-04-01T20:00:49;1.37;;;1.00;;
15354;SDS011;7777;52.254;9.618;2023-04-01T20:06:32;3.10;;;1.63;;
15354;SDS011;7777;52.254;9.618;2023-04-01T20:09:25;2.67;;;1.63;;
15354;SDS011;7777;52.254;9.618;2023-04-01T20:14:49;3.43;;;1.60;;
15354;SDS011;7777;52.254;9.618;2023-04-01T20:25:33;2.33;;;1.90;;
15354;SDS011;7777;52.254;9.618;2023-04-01T20:36:46;2.80;;;1.67;;
15354;SDS011;7777;52.254;9.618;2023-04-01T20:42:48;3.53;;;1.83;;
15354;SDS011;7777;52.254;9.618;2023-04-01T20:51:38;3.20;;;1.80;;
15354;SDS011;7777;52.254;9.618;2023-04-01T20:57:21;9.20;;;2.00;;
15354;SDS011;7777;52.254;9.618;2023-04-01T21:06:00;3.03;;;2.00;;
15354;SDS011;7777;52.254;9.618;2023-04-01T21:08:41;3.70;;;2.03;;
15354;SDS011;7777;52.254;9.618;2023-04-01T21:11:18;4.73;;;2.40;;
15354;SDS011;7777;52.254;9.618;2023-04-01T21:14:28;4.13;;;2.30;;
15354;SDS011;7777;52.254;9.618;2023-04-01T21:20:00;2.97;;;2.00;;
15354;SDS011;7777;52.254;9.618;2023-04-01T21:26:10;3.90;;;2.10;;
15354;SDS011;7777;52.254;9.618;2023-04-01T21:28:55;3.43;;;2.13;;
15354;SDS011;7777;52.254;9.618;2023-04-01T21:31:53;3.30;;;2.13;;
15354;SDS011;7777;52.254;9.618;2023-04-01T21:37:42;3.77;;;2.10;;
15354;SDS011;7777;52.254;9.618;2023-04-01T21:40:31;3.67;;;2.30;;
15354;SDS011;7777;52.254;9.618;2023-04-01T21:49:32;3.73;;;2.27;;
15354;SDS011;7777;52.254;9.618;2023-04-01T21:52:38;5.70;;;2.70;;
15354;SDS011;7777;52.254;9.618;2023-04-01T21:56:00;4.63;;;2.40;;
15354;SDS011;7777;52.254;9.618;2023-04-01T21:59:10;5.90;;;2.87;;
15354;SDS011;7777;52.254;9.618;2023-04-01T22:02:46;3.47;;;2.17;;
15354;SDS011;7777;52.254;9.618;2023-04-01T22:05:55;3.23;;;2.13;;
15354;SDS011;7777;52.254;9.618;2023-04-01T22:14:57;5.47;;;3.03;;
15354;SDS011;7777;52.254;9.618;2023-04-01T22:17:41;4.20;;;2.43;;
15354;SDS011;7777;52.254;9.618;2023-04-01T22:20:33;3.67;;;2.63;;
15354;SDS011;7777;52.254;9.618;2023-04-01T22:23:19;6.17;;;2.57;;
15354;SDS011;7777;52.254;9.618;2023-04-01T22:26:04;5.43;;;3.00;;
15354;SDS011;7777;52.254;9.618;2023-04-01T22:31:41;6.03;;;2.93;;
15354;SDS011;7777;52.254;9.618;2023-04-01T22:34:14;5.03;;;2.97;;
15354;SDS011;7777;52.254;9.618;2023-04-01T22:42:30;5.13;;;3.37;;
15354;SDS011;7777;52.254;9.618;2023-04-01T22:45:24;4.80;;;2.57;;
15354;SDS011;7777;52.254;9.618;2023-04-01T22:48:43;6.57;;;2.53;;
15354;SDS011;7777;52.254;9.618;2023-04-01T22:51:37;6.90;;;3.43;;
15354;SDS011;7777;52.254;9.618;2023-04-01T22:54:31;5.27;;;2.83;;
15354;SDS011;7777;52.254;9.618;2023-04-01T22:57:08;4.87;;;2.77;;
15354;SDS011;7777;52.254;9.618;2023-04-01T22:59:58;7.27;;;3.10;;
15354;SDS011;7777;52.254;9.618;2023-04-01T23:02:37;5.83;;;3.07;;
15354;SDS011;7777;52.254;9.618;2023-04-01T23:05:12;4.30;;;2.70;;
15354;SDS011;7777;52.254;9.618;2023-04-01T23:07:45;4.73;;;3.00;;
15354;SDS011;7777;52.254;9.618;2023-04-01T23:10:59;4.03;;;2.47;;
15354;SDS011;7777;52.254;9.618;2023-04-01T23:13:31;6.53;;;3.00;;
15354;SDS011;7777;52.254;9.618;2023-04-01T23:16:08;9.67;;;3.60;;
15354;SDS011;7777;52.254;9.618;2023-04-01T23:24:19;7.80;;;4.00;;
15354;SDS011;7777;52.254;9.618;2023-04-01T23:27:28;7.97;;;3.90;;
15354;SDS011;7777;52.254;9.618;2023-04-01T23:30:10;7.67;;;3.70;;
15354;SDS011;7777;52.254;9.618;2023-04-01T23:33:19;7.83;;;3.83;;
15354;SDS011;7777;52.254;9.618;2023-04-01T23:35:53;8.67;;;4.17;;
15354;SDS011;7777;52.254;9.618;2023-04-01T23:38:36;7.87;;;3.90;;
15354;SDS011;7777;52.254;9.618;2023-04-01T23:41:06;9.47;;;4.67;;
15354;SDS011;7777;52.254;9.618;2023-04-01T23:43:42;6.87;;;3.43;;
15354;SDS011;7777;52.254;9.618;2023-04-01T23:46:10;7.97;;;4.27;;
15354;SDS011;7777;52.254;9.618;2023-04-01T23:48:39;8.07;;;3.67;;
15354;SDS011;7777;52.254;9.618;2023-04-01T23:51:22;9.27;;;4.37;;
15354;SDS011;7777;52.254;9.618;2023-04-01T23:54:02;9.40;;;4.03;;
15354;SDS011;7777;52.254;9.618;2023-04-01T23:56:45;7.73;;;4.47;;
15354;SDS011;7777;52.254;9.618;2023-04-01T23:59:19;10.40;;;4.83;;
